Time;durP1;ratioP1;P1;durP2;ratioP2;P2;SDS_P1;SDS_P2;PMS_P1;PMS_P2;Temp;Humidity;BMP_temperature;BMP_pressure;BME280_temperature;BME280_humidity;BME280_pressure;Samples;Min_cycle;Max_cycle;Signal;HPM_P1;HPM_P2
2021/06/18 05:31:59;;;;;;;;;;;;;;;;;;;;;
2021/06/18 05:38:16;;;;;;;;;;;;;;;;;;;;;
2021/06/18 05:40:41;;;;;;;;;;;;;;;;;;;;;
2021/06/18 05:47:15;;;;;;;;;;;;;;;;;;;;;
2021/06/18 05:49:46;;;;;;;;;7.00;6.75;;;;;-144.77;100.00;61770.03;4839123;29;68870;-88
2021/06/18 05:52:33;;;;;;;;;;;;;;;;;;;;;
2021/06/18 05:54:58;;;;;;;;;9.00;8.50;;;;;-144.77;100.00;61770.03;4954400;28;74449;-88
2021/06/18 05:57:26;;;;;;;;;9.25;8.00;;;;;-144.77;100.00;61770.03;4956378;28;47121;-88
2021/06/18 06:00:08;;;;;;;;;9.75;8.00;;;;;-144.77;100.00;61770.03;4956155;28;46974;-90
2021/06/18 06:02:46;;;;;;;;;;;;;;;;;;;;;
2021/06/18 06:05:12;;;;;;;;;6.00;6.00;;;;;-144.77;100.00;61770.03;4960261;28;75384;-88
2021/06/18 06:07:44;;;;;;;;;10.00;9.00;;;;;-144.77;100.00;61770.03;4955941;28;47027;-88
2021/06/18 06:10:59;;;;;;;;;9.00;8.50;;;;;-144.77;100.00;61770.03;4956890;28;47075;-91
2021/06/18 06:13:44;;;;;;;;;;;;;;;;;;;;;
2021/06/18 06:16:23;;;;;;;;;;;;;;;;;;;;;
2021/06/18 06:22:34;;;;;;;;;;;;;;;;;;;;;
2021/06/18 06:25:07;;;;;;;;;8.25;8.25;;;;;-144.77;100.00;61770.03;4945037;28;75869;-87
2021/06/18 06:28:00;;;;;;;;;13.75;10.75;;;;;-144.77;100.00;61770.03;4960565;28;47141;-88
2021/06/18 06:30:28;;;;;;;;;12.25;12.25;;;;;-144.77;100.00;61770.03;4950014;28;46967;-87
2021/06/18 06:32:55;;;;;;;;;10.75;9.75;;;;;-144.77;100.00;61770.03;4959273;28;46893;-89
2021/06/18 06:35:22;;;;;;;;;13.75;12.00;;;;;-144.77;100.00;61770.03;4959356;28;48027;-87
2021/06/18 06:37:49;;;;;;;;;13.50;11.50;;;;;-144.77;100.00;61770.03;4960555;28;47168;-87
2021/06/18 06:40:16;;;;;;;;;12.25;9.50;;;;;-144.77;100.00;61770.03;4947847;28;47017;-88
2021/06/18 06:42:42;;;;;;;;;11.25;10.75;;;;;-144.77;100.00;61770.03;4951625;28;46827;-88
2021/06/18 06:45:08;;;;;;;;;12.50;12.25;;;;;-144.77;100.00;61770.03;4958866;28;48671;-88
2021/06/18 06:47:33;;;;;;;;;13.75;11.00;;;;;-144.77;100.00;61770.03;4960535;28;46975;-86
2021/06/18 06:49:59;;;;;;;;;10.50;10.25;;;;;-144.77;100.00;61770.03;4960456;28;47036;-87
2021/06/18 06:52:24;;;;;;;;;11.50;11.00;;;;;-144.77;100.00;61770.03;4960482;28;46853;-87
2021/06/18 06:54:50;;;;;;;;;14.75;12.00;;;;;-144.77;100.00;61770.03;4951227;28;48566;-87
2021/06/18 06:57:18;;;;;;;;;15.25;13.50;;;;;-144.77;100.00;61770.03;4955199;28;46889;-87
2021/06/18 06:59:43;;;;;;;;;11.50;11.50;;;;;-144.77;100.00;61770.03;4960421;28;47017;-86
2021/06/18 07:02:09;;;;;;;;;13.50;12.50;;;;;-144.77;100.00;61770.03;4960285;28;47242;-85
2021/06/18 07:04:34;;;;;;;;;13.75;12.75;;;;;-144.77;100.00;61770.03;4959820;28;47371;-85
2021/06/18 07:07:00;;;;;;;;;10.75;10.25;;;;;-144.77;100.00;61770.03;4960068;28;46984;-85
2021/06/18 07:09:26;;;;;;;;;14.00;12.50;;;;;-144.77;100.00;61770.03;4959775;28;47125;-86
2021/06/18 07:11:52;;;;;;;;;11.75;11.25;;;;;-144.77;100.00;61770.03;4946249;28;46905;-86
2021/06/18 07:14:17;;;;;;;;;14.00;13.25;;;;;-144.77;100.00;61770.03;4960035;28;47737;-85
2021/06/18 07:16:43;;;;;;;;;9.50;9.50;;;;;-144.77;100.00;61770.03;4955248;28;47920;-85
2021/06/18 07:19:09;;;;;;;;;10.25;9.50;;;;;-144.77;100.00;61770.03;4953935;28;46857;-84
2021/06/18 07:21:34;;;;;;;;;13.75;10.50;;;;;-144.77;100.00;61770.03;4959137;28;47159;-84
2021/06/18 07:24:00;;;;;;;;;13.50;12.50;;;;;-144.77;100.00;61770.03;4951848;28;47016;-84
2021/06/18 07:26:27;;;;;;;;;16.50;11.75;;;;;-144.77;100.00;61770.03;4947927;28;47061;-83
2021/06/18 07:28:52;;;;;;;;;8.00;8.00;;;;;-144.77;100.00;61770.03;4948485;28;46971;-83
2021/06/18 07:31:18;;;;;;;;;12.00;10.00;;;;;-144.77;100.00;61770.03;4958242;28;47025;-86
2021/06/18 07:33:43;;;;;;;;;10.25;7.75;;;;;-144.77;100.00;61770.03;4952771;28;47152;-85
2021/06/18 07:36:09;;;;;;;;;11.75;10.25;;;;;-144.77;100.00;61770.03;4953372;28;46935;-84
2021/06/18 07:38:35;;;;;;;;;10.00;9.50;;;;;-144.77;100.00;61770.03;4956618;28;47017;-84
2021/06/18 07:52:58;;;;;;;;;12.25;9.75;;;;;-144.77;100.00;61770.03;5559563;23;48243;-88
2021/06/18 07:55:35;;;;;;;;;8.00;8.00;;;;;-144.77;100.00;61770.03;4997065;28;49551;-86
2021/06/18 07:58:26;;;;;;;;;9.50;7.25;;;;;-144.77;100.00;61770.03;4993064;28;47390;-87
2021/06/18 08:01:20;;;;;;;;;10.00;9.25;;;;;-144.77;100.00;61770.03;4981045;28;47000;-87
2021/06/18 08:03:45;;;;;;;;;9.00;7.50;;;;;-144.77;100.00;61770.03;4991467;28;48705;-87
2021/06/18 08:06:12;;;;;;;;;9.75;8.00;;;;;-144.77;100.00;61770.03;4998792;28;46977;-86
2021/06/18 08:08:37;;;;;;;;;8.50;7.50;;;;;-144.77;100.00;61770.03;4994923;28;46849;-86
2021/06/18 08:11:03;;;;;;;;;9.00;9.00;;;;;-144.77;100.00;61770.03;4997995;28;46971;-87
2021/06/18 08:13:29;;;;;;;;;7.50;6.00;;;;;-144.77;100.00;61770.03;4998363;28;47360;-87
2021/06/18 08:15:55;;;;;;;;;11.50;10.25;;;;;-144.77;100.00;61770.03;4998268;28;47093;-86
2021/06/18 08:18:21;;;;;;;;;11.25;9.00;;;;;-144.77;100.00;61770.03;4998030;28;47139;-86
2021/06/18 08:20:47;;;;;;;;;8.00;6.75;;;;;-144.77;100.00;61770.03;4998258;28;47018;-82
2021/06/18 08:23:12;;;;;;;;;9.00;9.00;;;;;-144.77;100.00;61770.03;4998069;28;46946;-82
2021/06/18 08:25:38;;;;;;;;;11.50;8.75;;;;;-144.77;100.00;61770.03;4991952;28;47706;-82
2021/06/18 08:28:04;;;;;;;;;9.75;8.25;;;;;-144.77;100.00;61770.03;4997946;28;46966;-82
2021/06/18 08:30:30;;;;;;;;;10.75;9.00;;;;;-144.77;100.00;61770.03;4997756;28;47109;-81
2021/06/18 08:32:55;;;;;;;;;11.00;8.00;;;;;-144.77;100.00;61770.03;4997189;28;47246;-81
2021/06/18 08:35:21;;;;;;;;;9.75;9.00;;;;;-144.77;100.00;61770.03;4997793;28;47050;-82
2021/06/18 08:37:47;;;;;;;;;9.75;8.25;;;;;-144.77;100.00;61770.03;4997582;28;47045;-81
2021/06/18 08:40:13;;;;;;;;;10.25;7.50;;;;;-144.77;100.00;61770.03;4993451;28;47044;-81
2021/06/18 08:42:40;;;;;;;;;8.25;7.50;;;;;-144.77;100.00;61770.03;4995014;28;46847;-82
2021/06/18 08:45:07;;;;;;;;;7.00;7.00;;;;;-144.77;100.00;61770.03;4995142;28;47035;-82
2021/06/18 08:47:32;;;;;;;;;11.00;9.75;;;;;-144.77;100.00;61770.03;4997577;28;47598;-81
2021/06/18 08:49:58;;;;;;;;;7.25;7.25;;;;;-144.77;100.00;61770.03;4996073;28;47094;-81
2021/06/18 08:52:24;;;;;;;;;8.00;7.25;;;;;-144.77;100.00;61770.03;4990833;28;47061;-82
2021/06/18 08:54:51;;;;;;;;;6.75;6.75;;;;;-144.77;100.00;61770.03;5000584;28;47916;-81
2021/06/18 08:57:19;;;;;;;;;6.50;6.50;;;;;-144.77;100.00;61770.03;4990961;28;47007;-81
2021/06/18 08:59:46;;;;;;;;;8.00;7.00;;;;;-144.77;100.00;61770.03;4982926;28;47347;-81
2021/06/18 09:02:13;;;;;;;;;6.75;6.75;;;;;-144.77;100.00;61770.03;4980860;28;47107;-81
2021/06/18 09:05:13;;;;;;;;;6.75;5.00;;;;;-144.77;100.00;61770.03;4989848;28;48039;-81
2021/06/18 09:08:00;;;;;;;;;6.00;6.00;;;;;-144.77;100.00;61770.03;4998108;28;46832;-82
2021/06/18 09:10:35;;;;;;;;;7.75;7.00;;;;;-144.77;100.00;61770.03;4995165;28;47082;-82
2021/06/18 09:13:17;;;;;;;;;6.50;5.00;;;;;-144.77;100.00;61770.03;4999260;28;47017;-82
2021/06/18 09:15:49;;;;;;;;;7.00;6.00;;;;;-144.77;100.00;61770.03;4993433;28;47098;-83
2021/06/18 09:18:35;;;;;;;;;7.50;6.75;;;;;-144.77;100.00;61770.03;4989618;28;46985;-83
2021/06/18 09:21:10;;;;;;;;;6.50;6.00;;;;;-144.77;100.00;61770.03;4990981;28;47077;-82
2021/06/18 09:23:42;;;;;;;;;6.00;6.00;;;;;-144.77;100.00;61770.03;4976165;28;47147;-83
2021/06/18 09:26:17;;;;;;;;;7.50;5.75;;;;;-144.77;100.00;61770.03;4996600;28;47001;-82
2021/06/18 09:29:15;;;;;;;;;10.00;6.25;;;;;-144.77;100.00;61770.03;4999846;28;47150;-82
2021/06/18 09:31:47;;;;;;;;;6.50;6.50;;;;;-144.77;100.00;61770.03;4998835;28;47031;-82
2021/06/18 09:34:14;;;;;;;;;7.00;6.50;;;;;-144.77;100.00;61770.03;4999121;28;47038;-82
2021/06/18 09:36:40;;;;;;;;;5.00;4.25;;;;;-144.77;100.00;61770.03;4987127;28;47058;-85
2021/06/18 09:39:17;;;;;;;;;7.00;5.00;;;;;-144.77;100.00;61770.03;4991305;28;46847;-84
2021/06/18 09:41:45;;;;;;;;;9.50;7.50;;;;;-144.77;100.00;61770.03;4997765;28;47036;-83
2021/06/18 09:44:15;;;;;;;;;6.00;6.00;;;;;-144.77;100.00;61770.03;5000426;28;47223;-87
2021/06/18 09:46:54;;;;;;;;;6.00;5.00;;;;;-144.77;100.00;61770.03;5000662;28;48133;-88
2021/06/18 09:49:29;;;;;;;;;7.50;4.50;;;;;-144.77;100.00;61770.03;4998646;28;47022;-85
2021/06/18 09:51:55;;;;;;;;;6.00;6.00;;;;;-144.77;100.00;61770.03;4996918;28;47085;-84
2021/06/18 09:54:21;;;;;;;;;6.75;6.00;;;;;-144.77;100.00;61770.03;4997435;28;47136;-86
2021/06/18 09:56:46;;;;;;;;;8.00;6.75;;;;;-144.77;100.00;61770.03;5000197;28;47662;-86
2021/06/18 09:59:23;;;;;;;;;5.50;5.25;;;;;-144.77;100.00;61770.03;4999128;28;46988;-86
2021/06/18 10:01:53;;;;;;;;;5.00;4.75;;;;;-144.77;100.00;61770.03;4998742;28;46955;-84
2021/06/18 10:04:20;;;;;;;;;3.75;3.75;;;;;-144.77;100.00;61770.03;4994273;28;47130;-86
2021/06/18 10:06:46;;;;;;;;;6.25;5.50;;;;;-144.77;100.00;61770.03;4999972;28;47120;-85
2021/06/18 10:09:16;;;;;;;;;7.25;7.25;;;;;-144.77;100.00;61770.03;4997145;28;47049;-86
2021/06/18 10:11:45;;;;;;;;;4.75;4.75;;;;;-144.77;100.00;61770.03;4997272;28;46899;-86
2021/06/18 10:14:12;;;;;;;;;6.00;6.00;;;;;-144.77;100.00;61770.03;5000385;28;47112;-86
2021/06/18 10:16:39;;;;;;;;;8.75;5.00;;;;;-144.77;100.00;61770.03;4990915;28;47021;-87
2021/06/18 10:19:05;;;;;;;;;6.00;5.00;;;;;-144.77;100.00;61770.03;4985645;28;47058;-87
2021/06/18 10:21:48;;;;;;;;;6.50;4.25;;;;;-144.77;100.00;61770.03;4963430;28;47215;-86
2021/06/18 10:24:15;;;;;;;;;3.50;3.50;;;;;-144.77;100.00;61770.03;4972710;28;46972;-86
2021/06/18 10:26:48;;;;;;;;;3.25;3.25;;;;;-144.77;100.00;61770.03;4968918;28;47968;-84
2021/06/18 10:29:32;;;;;;;;;6.00;3.00;;;;;-144.77;100.00;61770.03;4962461;28;47158;-84
2021/06/18 10:32:27;;;;;;;;;4.00;4.00;;;;;-144.77;100.00;61770.03;4959453;28;47201;-85
2021/06/18 10:34:54;;;;;;;;;4.00;4.00;;;;;-144.77;100.00;61770.03;4973689;28;47314;-84
2021/06/18 10:37:22;;;;;;;;;3.25;3.25;;;;;-144.77;100.00;61770.03;4964355;28;46919;-87
2021/06/18 10:39:50;;;;;;;;;3.00;3.00;;;;;-144.77;100.00;61770.03;4948282;28;47068;-88
2021/06/18 10:42:17;;;;;;;;;3.00;3.00;;;;;-144.77;100.00;61770.03;4974318;28;47128;-90
2021/06/18 10:44:44;;;;;;;;;4.00;4.00;;;;;-144.77;100.00;61770.03;4964294;28;46960;-82
2021/06/18 10:47:29;;;;;;;;;4.75;4.75;;;;;-144.77;100.00;61770.03;4960145;28;47123;-84
2021/06/18 10:49:55;;;;;;;;;4.50;4.50;;;;;-144.77;100.00;61770.03;4960193;28;46889;-83
2021/06/18 10:52:23;;;;;;;;;4.00;4.00;;;;;-144.77;100.00;61770.03;4960744;28;46926;-84
2021/06/18 10:54:52;;;;;;;;;5.00;3.00;;;;;-144.77;100.00;61770.03;4959727;28;46770;-82
2021/06/18 10:57:21;;;;;;;;;3.00;3.00;;;;;-144.77;100.00;61770.03;4963573;28;48023;-82
2021/06/18 11:00:06;;;;;;;;;5.25;4.00;;;;;-144.77;100.00;61770.03;4960509;28;46921;-83
2021/06/18 11:02:34;;;;;;;;;4.50;3.75;;;;;-144.77;100.00;61770.03;4960307;28;47093;-82
2021/06/18 11:05:15;;;;;;;;;6.00;4.00;;;;;-144.77;100.00;61770.03;4960488;28;47066;-84
2021/06/18 11:07:42;;;;;;;;;3.00;3.00;;;;;-144.77;100.00;61770.03;4960170;28;46939;-82
2021/06/18 11:10:26;;;;;;;;;3.00;2.75;;;;;-144.77;100.00;61770.03;4960136;28;47131;-84
2021/06/18 11:13:04;;;;;;;;;3.50;3.00;;;;;-144.77;100.00;61770.03;4967793;28;46865;-83
2021/06/18 11:15:29;;;;;;;;;3.00;3.00;;;;;-144.77;100.00;61770.03;4963862;28;47000;-84
2021/06/18 11:18:02;;;;;;;;;3.75;3.75;;;;;-144.77;100.00;61770.03;4959819;28;47790;-83
2021/06/18 11:20:34;;;;;;;;;5.00;4.50;;;;;-144.77;100.00;61770.03;4959931;28;47012;-86
2021/06/18 11:23:13;;;;;;;;;7.00;4.50;;;;;-144.77;100.00;61770.03;4964472;28;46953;-82
2021/06/18 11:25:45;;;;;;;;;5.50;5.50;;;;;-144.77;100.00;61770.03;4977779;28;46865;-83
2021/06/18 11:28:21;;;;;;;;;4.00;4.00;;;;;-144.77;100.00;61770.03;4966601;28;46974;-84
2021/06/18 11:30:55;;;;;;;;;4.25;4.00;;;;;-144.77;100.00;61770.03;4960248;28;46827;-85
2021/06/18 11:33:39;;;;;;;;;5.75;4.50;;;;;-144.77;100.00;61770.03;4963350;28;47207;-83
2021/06/18 11:36:05;;;;;;;;;5.50;3.00;;;;;-144.77;100.00;61770.03;4959962;28;47112;-84
2021/06/18 11:38:31;;;;;;;;;3.75;3.75;;;;;-144.77;100.00;61770.03;4959383;28;46847;-83
2021/06/18 11:41:00;;;;;;;;;4.00;4.00;;;;;-144.77;100.00;61770.03;4968978;28;47219;-83
2021/06/18 11:43:27;;;;;;;;;5.50;4.00;;;;;-144.77;100.00;61770.03;4974499;28;46979;-83
2021/06/18 11:45:59;;;;;;;;;2.25;2.25;;;;;-144.77;100.00;61770.03;4960047;28;47024;-84
2021/06/18 11:48:46;;;;;;;;;4.25;3.00;;;;;-144.77;100.00;61770.03;4942234;28;47116;-85
2021/06/18 11:51:31;;;;;;;;;2.25;2.25;;;;;-144.77;100.00;61770.03;4959184;28;46954;-83
2021/06/18 11:53:57;;;;;;;;;5.00;3.00;;;;;-144.77;100.00;61770.03;4959064;28;47121;-88
2021/06/18 11:56:33;;;;;;;;;3.00;2.00;;;;;-144.77;100.00;61770.03;4958449;28;47230;-84
2021/06/18 11:58:59;;;;;;;;;1.75;1.75;;;;;-144.77;100.00;61770.03;4962031;28;46933;-83
2021/06/18 12:01:31;;;;;;;;;2.00;2.00;;;;;-144.77;100.00;61770.03;4959611;28;46969;-83
2021/06/18 12:03:59;;;;;;;;;4.00;3.00;;;;;-144.77;100.00;61770.03;4959336;28;46905;-82
2021/06/18 12:06:28;;;;;;;;;3.25;2.00;;;;;-144.77;100.00;61770.03;4959782;28;46886;-81
2021/06/18 12:09:04;;;;;;;;;2.25;2.00;;;;;-144.77;100.00;61770.03;4959070;28;46984;-81
2021/06/18 12:11:34;;;;;;;;;2.00;2.00;;;;;-144.77;100.00;61770.03;4959400;28;47028;-82
2021/06/18 12:14:00;;;;;;;;;2.75;2.00;;;;;-144.77;100.00;61770.03;4959246;28;46962;-82
2021/06/18 12:16:27;;;;;;;;;4.00;3.00;;;;;-144.77;100.00;61770.03;4959487;28;46942;-82
2021/06/18 12:18:53;;;;;;;;;2.00;2.00;;;;;-144.77;100.00;61770.03;4962128;28;47068;-82
2021/06/18 12:21:27;;;;;;;;;2.00;2.00;;;;;-144.77;100.00;61770.03;4962826;28;46821;-82
2021/06/18 12:24:05;;;;;;;;;3.00;2.25;;;;;-144.77;100.00;61770.03;4970560;28;46921;-82
2021/06/18 12:26:31;;;;;;;;;3.50;3.50;;;;;-144.77;100.00;61770.03;4988365;28;46952;-82
2021/06/18 12:29:00;;;;;;;;;2.75;2.75;;;;;-144.77;100.00;61770.03;4963115;28;47091;-82
2021/06/18 12:31:26;;;;;;;;;2.25;2.25;;;;;-144.77;100.00;61770.03;4966159;28;47184;-82
2021/06/18 12:33:52;;;;;;;;;3.25;2.75;;;;;-144.77;100.00;61770.03;4962563;28;46842;-82
2021/06/18 12:36:19;;;;;;;;;4.00;2.00;;;;;-144.77;100.00;61770.03;4962633;28;46838;-82
2021/06/18 12:38:46;;;;;;;;;2.00;2.00;;;;;-144.77;100.00;61770.03;4968928;28;47081;-82
2021/06/18 12:41:28;;;;;;;;;3.00;2.00;;;;;-144.77;100.00;61770.03;4981341;28;47212;-82
2021/06/18 12:44:01;;;;;;;;;5.00;2.00;;;;;-144.77;100.00;61770.03;4972965;28;46847;-82
2021/06/18 12:46:27;;;;;;;;;2.00;2.00;;;;;-144.77;100.00;61770.03;4962272;28;47136;-82
2021/06/18 12:48:52;;;;;;;;;1.00;1.00;;;;;-144.77;100.00;61770.03;4962153;28;46961;-82
2021/06/18 12:51:19;;;;;;;;;2.00;2.00;;;;;-144.77;100.00;61770.03;4962079;28;46877;-82
2021/06/18 12:53:48;;;;;;;;;2.75;2.75;;;;;-144.77;100.00;61770.03;4961817;28;47106;-82
2021/06/18 12:56:17;;;;;;;;;1.75;1.75;;;;;-144.77;100.00;61770.03;4962138;28;47236;-82
2021/06/18 12:58:45;;;;;;;;;2.00;2.00;;;;;-144.77;100.00;61770.03;4964909;28;48078;-83
2021/06/18 13:01:15;;;;;;;;;3.00;1.00;;;;;-144.77;100.00;61770.03;4961956;28;47149;-82
2021/06/18 13:03:46;;;;;;;;;2.00;2.00;;;;;-144.77;100.00;61770.03;4961958;28;46822;-82
2021/06/18 13:06:13;;;;;;;;;3.50;2.00;;;;;-144.77;100.00;61770.03;4969135;28;46938;-83
2021/06/18 13:08:59;;;;;;;;;3.25;2.75;;;;;-144.77;100.00;61770.03;4967629;28;47147;-82
2021/06/18 13:11:32;;;;;;;;;2.50;2.50;;;;;-144.77;100.00;61770.03;4962176;28;47023;-86
2021/06/18 13:14:20;;;;;;;;;5.00;3.00;;;;;-144.77;100.00;61770.03;4962068;28;46985;-86
2021/06/18 13:17:01;;;;;;;;;3.75;3.00;;;;;-144.77;100.00;61770.03;4962033;28;47058;-81
2021/06/18 13:19:45;;;;;;;;;2.00;2.00;;;;;-144.77;100.00;61770.03;4961801;28;48203;-82
2021/06/18 13:22:23;;;;;;;;;4.50;3.25;;;;;-144.77;100.00;61770.03;4961633;28;47306;-83
2021/06/18 13:25:03;;;;;;;;;3.00;3.00;;;;;-144.77;100.00;61770.03;4980129;28;46960;-83
2021/06/18 13:27:31;;;;;;;;;2.25;2.25;;;;;-144.77;100.00;61770.03;4962097;28;46973;-83
2021/06/18 13:30:04;;;;;;;;;2.50;2.00;;;;;-144.77;100.00;61770.03;4960410;28;47294;-82
2021/06/18 13:32:39;;;;;;;;;2.75;2.75;;;;;-144.77;100.00;61770.03;4965636;28;47075;-82
2021/06/18 13:35:07;;;;;;;;;1.00;1.00;;;;;-144.77;100.00;61770.03;4944065;28;47238;-81
2021/06/18 13:37:33;;;;;;;;;2.75;2.75;;;;;-144.77;100.00;61770.03;4961889;28;47036;-82
2021/06/18 13:40:37;;;;;;;;;2.00;2.00;;;;;-144.77;100.00;61770.03;4961147;28;47998;-83
2021/06/18 13:43:03;;;;;;;;;1.75;1.75;;;;;-144.77;100.00;61770.03;4961484;28;47074;-82
2021/06/18 13:45:29;;;;;;;;;2.00;2.00;;;;;-144.77;100.00;61770.03;4961772;28;46929;-83
2021/06/18 13:47:58;;;;;;;;;2.00;2.00;;;;;-144.77;100.00;61770.03;4961610;28;47028;-83
2021/06/18 13:50:26;;;;;;;;;2.00;2.00;;;;;-144.77;100.00;61770.03;4961566;28;47994;-83
2021/06/18 13:52:53;;;;;;;;;4.75;2.25;;;;;-144.77;100.00;61770.03;4960588;28;47283;-84
2021/06/18 13:55:20;;;;;;;;;2.00;2.00;;;;;-144.77;100.00;61770.03;4961448;28;46985;-82
2021/06/18 13:57:46;;;;;;;;;1.00;1.00;;;;;-144.77;100.00;61770.03;4964548;28;47080;-83
2021/06/18 14:00:12;;;;;;;;;2.00;2.00;;;;;-144.77;100.00;61770.03;4961188;28;46956;-84
2021/06/18 14:02:37;;;;;;;;;2.00;2.00;;;;;-144.77;100.00;61770.03;4959621;28;47287;-83
2021/06/18 14:05:04;;;;;;;;;2.00;2.00;;;;;-144.77;100.00;61770.03;4961289;28;47059;-83
2021/06/18 14:07:30;;;;;;;;;4.00;2.00;;;;;-144.77;100.00;61770.03;4961231;28;46925;-83
2021/06/18 14:09:56;;;;;;;;;1.00;1.00;;;;;-144.77;100.00;61770.03;4960730;28;47016;-82
2021/06/18 14:12:22;;;;;;;;;3.00;3.00;;;;;-144.77;100.00;61770.03;4961032;28;47092;-83
2021/06/18 14:17:29;;;;;;;;;2.00;2.00;;;;;-144.77;100.00;61770.03;4961031;28;46857;-82
2021/06/18 14:19:56;;;;;;;;;2.25;2.25;;;;;-144.77;100.00;61770.03;4961008;28;47920;-83
2021/06/18 14:22:22;;;;;;;;;1.50;1.50;;;;;-144.77;100.00;61770.03;4967626;28;47021;-83
2021/06/18 14:24:48;;;;;;;;;1.75;1.75;;;;;-144.77;100.00;61770.03;4981955;28;46952;-82
2021/06/18 14:27:14;;;;;;;;;1.00;1.00;;;;;-144.77;100.00;61770.03;4976875;28;47214;-82
2021/06/18 14:29:40;;;;;;;;;3.00;3.00;;;;;-144.77;100.00;61770.03;4960730;28;47059;-83
2021/06/18 14:32:07;;;;;;;;;3.00;3.00;;;;;-144.77;100.00;61770.03;4969581;28;47079;-85
2021/06/18 14:37:22;;;;;;;;;2.00;2.00;;;;;-144.77;100.00;61770.03;4969766;28;47043;-85
2021/06/18 14:39:48;;;;;;;;;1.00;1.00;;;;;-144.77;100.00;61770.03;4963871;28;47486;-83
2021/06/18 14:42:14;;;;;;;;;2.00;2.00;;;;;-144.77;100.00;61770.03;4981921;28;47275;-84
2021/06/18 14:44:39;;;;;;;;;3.75;2.00;;;;;-144.77;100.00;61770.03;4964749;28;46996;-83
2021/06/18 14:47:05;;;;;;;;;1.25;1.25;;;;;-144.77;100.00;61770.03;4960930;28;47064;-83
2021/06/18 14:49:31;;;;;;;;;2.50;2.00;;;;;-144.77;100.00;61770.03;4960331;28;47012;-83
2021/06/18 14:51:57;;;;;;;;;1.25;1.25;;;;;-144.77;100.00;61770.03;4960460;28;47260;-84
2021/06/18 14:54:23;;;;;;;;;1.75;1.75;;;;;-144.77;100.00;61770.03;4960065;28;47116;-83
2021/06/18 14:56:48;;;;;;;;;2.00;2.00;;;;;-144.77;100.00;61770.03;4960560;28;46799;-84
2021/06/18 14:59:15;;;;;;;;;2.50;2.00;;;;;-144.77;100.00;61770.03;4963293;28;46946;-84
2021/06/18 15:01:40;;;;;;;;;2.00;2.00;;;;;-144.77;100.00;61770.03;4952456;28;47182;-83
2021/06/18 15:04:07;;;;;;;;;2.00;1.50;;;;;-144.77;100.00;61770.03;4976321;28;46973;-83
2021/06/18 15:06:32;;;;;;;;;2.00;2.00;;;;;-144.77;100.00;61770.03;4960513;28;47043;-83
2021/06/18 15:09:01;;;;;;;;;2.75;2.75;;;;;-144.77;100.00;61770.03;4959771;28;48026;-86
2021/06/18 15:11:26;;;;;;;;;2.00;2.00;;;;;-144.77;100.00;61770.03;4962200;28;47918;-90
2021/06/18 15:13:54;;;;;;;;;1.00;1.00;;;;;-144.77;100.00;61770.03;4948347;28;46873;-83
2021/06/18 15:16:20;;;;;;;;;2.00;2.00;;;;;-144.77;100.00;61770.03;4968158;28;47200;-83
2021/06/18 15:18:45;;;;;;;;;2.75;1.00;;;;;-144.77;100.00;61770.03;4958481;28;47804;-83
2021/06/18 15:21:11;;;;;;;;;1.50;1.50;;;;;-144.77;100.00;61770.03;4953278;28;46963;-83
2021/06/18 15:23:37;;;;;;;;;2.00;2.00;;;;;-144.77;100.00;61770.03;4979405;28;47045;-83
2021/06/18 15:26:05;;;;;;;;;4.00;2.00;;;;;-144.77;100.00;61770.03;4979228;28;47039;-84
2021/06/18 15:28:33;;;;;;;;;1.75;1.75;;;;;-144.77;100.00;61770.03;4961115;28;46969;-84
2021/06/18 15:31:11;;;;;;;;;2.00;2.00;;;;;-144.77;100.00;61770.03;4959950;28;47052;-84
2021/06/18 15:33:59;;;;;;;;;1.25;1.25;;;;;-144.77;100.00;61770.03;4959968;28;47064;-84
2021/06/18 15:36:28;;;;;;;;;1.00;1.00;;;;;-144.77;100.00;61770.03;4947561;28;47324;-84
2021/06/18 15:38:56;;;;;;;;;2.00;2.00;;;;;-144.77;100.00;61770.03;4942125;28;49753;-85
2021/06/18 15:41:22;;;;;;;;;1.75;1.75;;;;;-144.77;100.00;61770.03;4971762;28;47125;-85
2021/06/18 15:43:48;;;;;;;;;2.00;2.00;;;;;-144.77;100.00;61770.03;4968596;28;46975;-86
2021/06/18 15:46:14;;;;;;;;;0.50;0.50;;;;;-144.77;100.00;61770.03;4959691;28;47112;-85
2021/06/18 15:48:39;;;;;;;;;1.25;1.25;;;;;-144.77;100.00;61770.03;4959549;28;46915;-84
2021/06/18 15:52:07;;;;;;;;;;;;;;;;;;;;;
2021/06/18 15:54:33;;;;;;;;;3.25;2.00;;;;;-144.77;100.00;61770.03;4949594;28;72076;-87
2021/06/18 15:57:09;;;;;;;;;2.00;1.25;;;;;-144.77;100.00;61770.03;4963919;28;47118;-85
2021/06/18 15:59:34;;;;;;;;;2.00;2.00;;;;;-144.77;100.00;61770.03;4974049;28;47124;-82
2021/06/18 16:02:00;;;;;;;;;1.75;1.75;;;;;-144.77;100.00;61770.03;4962894;28;47096;-83
2021/06/18 16:04:29;;;;;;;;;1.75;1.00;;;;;-144.77;100.00;61770.03;4962892;28;47018;-85
2021/06/18 16:06:54;;;;;;;;;3.00;1.75;;;;;-144.77;100.00;61770.03;4963127;28;48230;-84
2021/06/18 16:09:21;;;;;;;;;1.25;1.25;;;;;-144.77;100.00;61770.03;4954688;28;48527;-84
2021/06/18 16:11:55;;;;;;;;;1.75;1.75;;;;;-144.77;100.00;61770.03;4979270;28;46826;-84
2021/06/18 16:14:20;;;;;;;;;1.75;1.75;;;;;-144.77;100.00;61770.03;4962892;28;46887;-84
2021/06/18 16:16:46;;;;;;;;;2.25;2.00;;;;;-144.77;100.00;61770.03;4962678;28;47199;-84
2021/06/18 16:19:17;;;;;;;;;1.25;1.25;;;;;-144.77;100.00;61770.03;4956079;28;48588;-82
2021/06/18 16:21:44;;;;;;;;;2.00;2.00;;;;;-144.77;100.00;61770.03;4976779;28;47267;-83
2021/06/18 16:24:10;;;;;;;;;2.00;2.00;;;;;-144.77;100.00;61770.03;4972860;28;47039;-82
2021/06/18 16:26:36;;;;;;;;;3.00;2.00;;;;;-144.77;100.00;61770.03;4975961;28;47049;-82
2021/06/18 16:29:06;;;;;;;;;2.00;2.00;;;;;-144.77;100.00;61770.03;4962559;28;46852;-83
2021/06/18 16:32:01;;;;;;;;;2.75;1.25;;;;;-144.77;100.00;61770.03;4966827;28;47812;-85
2021/06/18 16:35:01;;;;;;;;;1.75;1.75;;;;;-144.77;100.00;61770.03;4965008;28;47017;-85
2021/06/18 16:37:36;;;;;;;;;2.75;2.75;;;;;-144.77;100.00;61770.03;4965781;28;47003;-84
2021/06/18 16:40:08;;;;;;;;;2.75;2.00;;;;;-144.77;100.00;61770.03;4956102;28;47050;-85
2021/06/18 16:42:34;;;;;;;;;1.75;1.75;;;;;-144.77;100.00;61770.03;4984332;28;47080;-84
2021/06/18 16:45:08;;;;;;;;;2.00;2.00;;;;;-144.77;100.00;61770.03;4967631;28;47058;-84
2021/06/18 16:47:46;;;;;;;;;;;;;;;;;;;;;
2021/06/18 16:50:20;;;;;;;;;2.00;2.00;;;;;-144.77;100.00;61770.03;4971265;28;75390;-84
2021/06/18 16:53:30;;;;;;;;;2.00;2.00;;;;;-144.77;100.00;61770.03;4978633;28;47071;-84
2021/06/18 16:55:56;;;;;;;;;5.00;1.75;;;;;-144.77;100.00;61770.03;4971132;28;47090;-84
2021/06/18 16:58:24;;;;;;;;;3.00;2.25;;;;;-144.77;100.00;61770.03;4979292;28;47062;-84
2021/06/18 17:00:58;;;;;;;;;1.00;1.00;;;;;-144.77;100.00;61770.03;4968994;28;47049;-84
2021/06/18 17:03:24;;;;;;;;;2.25;2.25;;;;;-144.77;100.00;61770.03;4959766;28;46982;-84
2021/06/18 17:05:49;;;;;;;;;1.00;1.00;;;;;-144.77;100.00;61770.03;4967206;28;47110;-85
2021/06/18 17:08:20;;;;;;;;;3.00;2.00;;;;;-144.77;100.00;61770.03;4944245;28;47049;-84
2021/06/18 17:10:46;;;;;;;;;3.00;3.00;;;;;-144.77;100.00;61770.03;4963226;28;47608;-83
2021/06/18 17:13:50;;;;;;;;;3.00;2.00;;;;;-144.77;100.00;61770.03;4966858;28;47155;-85
2021/06/18 17:16:15;;;;;;;;;3.00;2.00;;;;;-144.77;100.00;61770.03;4968914;28;47262;-84
2021/06/18 17:18:42;;;;;;;;;2.25;2.00;;;;;-144.77;100.00;61770.03;4961694;28;47227;-85
2021/06/18 17:21:18;;;;;;;;;3.00;3.00;;;;;-144.77;100.00;61770.03;4968963;28;47905;-85
2021/06/18 17:23:49;;;;;;;;;4.00;2.75;;;;;-144.77;100.00;61770.03;4980931;28;47221;-85
2021/06/18 17:26:35;;;;;;;;;2.00;2.00;;;;;-144.77;100.00;61770.03;4966941;28;47051;-84
2021/06/18 17:29:03;;;;;;;;;2.50;2.50;;;;;-144.77;100.00;61770.03;4952502;28;47255;-85
2021/06/18 17:31:31;;;;;;;;;4.00;3.00;;;;;-144.77;100.00;61770.03;4971689;28;48082;-85
2021/06/18 17:33:57;;;;;;;;;2.25;2.25;;;;;-144.77;100.00;61770.03;4973192;28;46936;-84
2021/06/18 17:36:22;;;;;;;;;3.25;3.00;;;;;-144.77;100.00;61770.03;4978905;28;47248;-83
2021/06/18 17:38:48;;;;;;;;;2.50;2.50;;;;;-144.77;100.00;61770.03;4971644;28;47413;-83